createdAt,value
2023-03-26T00:01:44.605Z,26.05
2023-03-26T00:05:45.864Z,26.02
2023-03-26T00:09:46.844Z,26.05
2023-03-26T00:13:45.744Z,26.05
2023-03-26T00:17:45.244Z,26.04
2023-03-26T00:21:45.717Z,26.04
2023-03-26T00:25:45.417Z,26.02
2023-03-26T00:29:45.742Z,26.04
2023-03-26T00:33:46.252Z,26.04
2023-03-26T00:37:46.055Z,26.02
2023-03-26T00:41:46.220Z,26.01
2023-03-26T00:45:52.150Z,26.01
2023-03-26T00:49:46.359Z,25.99
2023-03-26T00:53:46.386Z,26.02
2023-03-26T00:57:48.803Z,26.01
2023-03-26T01:01:46.276Z,26.02
2023-03-26T01:05:46.242Z,25.99
2023-03-26T01:09:46.204Z,26.04
2023-03-26T01:13:49.232Z,25.99
2023-03-26T01:17:49.224Z,25.98
2023-03-26T01:21:47.799Z,26.02
2023-03-26T01:25:46.037Z,26.04
2023-03-26T01:29:46.030Z,26.02
2023-03-26T01:33:46.348Z,26.04
2023-03-26T01:37:46.240Z,26.02
2023-03-26T01:41:46.734Z,26.02
2023-03-26T01:45:46.529Z,26.02
2023-03-26T01:49:46.752Z,26.01
2023-03-26T01:53:46.920Z,25.99
2023-03-26T01:57:47.247Z,26.01
2023-03-26T02:01:47.829Z,26.04
2023-03-26T02:05:47.375Z,26.04
2023-03-26T02:09:47.584Z,26.02
2023-03-26T02:13:48.287Z,26.02
2023-03-26T02:17:48.269Z,26.04
2023-03-26T02:21:48.175Z,26.04
2023-03-26T02:25:49.243Z,26.02
2023-03-26T02:29:48.567Z,26.02
2023-03-26T02:33:50.264Z,26.02
2023-03-26T02:37:49.234Z,26.04
2023-03-26T02:41:52.036Z,26.04
2023-03-26T02:45:49.259Z,26.04
2023-03-26T02:49:48.833Z,26.02
2023-03-26T02:53:48.797Z,25.99
2023-03-26T02:57:49.307Z,26.04
2023-03-26T03:01:48.711Z,26.02
2023-03-26T03:05:48.665Z,26.01
2023-03-26T03:09:48.769Z,26.02
2023-03-26T03:13:48.612Z,26.01
2023-03-26T03:17:48.584Z,26.02
2023-03-26T03:21:48.795Z,26.01
2023-03-26T03:25:48.817Z,26.01
2023-03-26T03:29:49.320Z,26.01
2023-03-26T03:33:49.183Z,26.02
2023-03-26T03:37:49.354Z,26.02
2023-03-26T03:41:49.830Z,26.01
2023-03-26T03:45:49.795Z,26.02
2023-03-26T03:49:49.914Z,26.01
2023-03-26T03:53:50.300Z,26.02
2023-03-26T03:57:50.338Z,26.01
2023-03-26T04:01:50.526Z,26.01
2023-03-26T04:05:50.595Z,26.01
2023-03-26T04:09:50.768Z,26.01
2023-03-26T04:13:50.971Z,26.02
2023-03-26T04:17:51.184Z,26.02
2023-03-26T04:21:51.380Z,26.02
2023-03-26T04:25:51.523Z,26.01
2023-03-26T04:29:51.820Z,25.99
2023-03-26T04:33:51.936Z,26.05
2023-03-26T04:37:52.276Z,26.01
2023-03-26T04:41:52.389Z,26.02
2023-03-26T04:45:53.071Z,26.02
2023-03-26T04:49:52.794Z,26.01
2023-03-26T04:53:52.986Z,26.01
2023-03-26T04:57:53.105Z,26.04
2023-03-26T05:01:53.383Z,26.01
2023-03-26T05:05:53.565Z,26.02
2023-03-26T05:09:53.620Z,26.04
2023-03-26T05:13:53.783Z,26.02
2023-03-26T05:17:53.984Z,25.99
2023-03-26T05:21:54.335Z,25.99
2023-03-26T05:25:54.292Z,26.02
2023-03-26T05:29:54.496Z,26.04
2023-03-26T05:33:54.640Z,25.99
2023-03-26T05:37:54.841Z,26.02
2023-03-26T05:41:54.943Z,26.04
2023-03-26T05:45:55.389Z,26.01
2023-03-26T05:49:55.477Z,26.01
2023-03-26T05:53:55.865Z,26.02
2023-03-26T05:57:55.645Z,26.01
2023-03-26T06:01:55.852Z,25.99
2023-03-26T06:05:56.310Z,26.02
2023-03-26T06:09:56.274Z,26.02
2023-03-26T06:13:56.849Z,26.02
2023-03-26T06:17:56.663Z,26.01
2023-03-26T06:21:56.866Z,25.99
2023-03-26T06:25:56.939Z,26.01
2023-03-26T06:29:57.129Z,26.01
2023-03-26T06:33:57.361Z,25.99
2023-03-26T06:37:57.448Z,26.01
2023-03-26T06:41:57.873Z,26.01
2023-03-26T06:45:57.826Z,26.01
2023-03-26T06:49:58.026Z,25.99
2023-03-26T06:53:58.364Z,26.01
2023-03-26T06:57:58.374Z,26.01
2023-03-26T07:01:58.578Z,26.01
2023-03-26T07:05:58.756Z,25.99
2023-03-26T07:09:59.481Z,25.99
2023-03-26T07:13:59.123Z,26.02
2023-03-26T07:17:59.396Z,26.01
2023-03-26T07:21:59.557Z,26.02
2023-03-26T07:25:59.746Z,26.02
2023-03-26T07:29:59.882Z,26.01
2023-03-26T07:34:00.377Z,26.02
2023-03-26T07:38:00.386Z,26.02
2023-03-26T07:42:00.437Z,26.02
2023-03-26T07:46:00.917Z,26.02
2023-03-26T07:50:00.892Z,26.04
2023-03-26T07:54:01.368Z,26.02
2023-03-26T07:58:01.378Z,26.02
2023-03-26T08:02:01.247Z,26.01
2023-03-26T08:06:01.413Z,26.02
2023-03-26T08:10:01.888Z,26.02
2023-03-26T08:14:01.833Z,26.01
2023-03-26T08:18:02.429Z,26.01
2023-03-26T08:22:02.209Z,26.02
2023-03-26T08:26:02.891Z,25.99
2023-03-26T08:30:02.582Z,25.99
2023-03-26T08:34:02.870Z,25.99
2023-03-26T08:38:02.961Z,25.99
2023-03-26T08:42:03.371Z,25.99
2023-03-26T08:46:03.412Z,26.01
2023-03-26T08:50:03.469Z,25.99
2023-03-26T08:54:03.895Z,25.98
2023-03-26T08:58:03.778Z,25.99
2023-03-26T09:02:03.964Z,26.01
2023-03-26T09:06:04.123Z,25.98
2023-03-26T09:10:04.371Z,25.98
2023-03-26T09:14:04.497Z,25.97
2023-03-26T09:18:04.776Z,25.97
2023-03-26T09:22:04.924Z,25.98
2023-03-26T09:26:04.964Z,25.99
2023-03-26T09:30:05.454Z,25.99
2023-03-26T09:34:05.376Z,25.97
2023-03-26T09:38:05.888Z,25.97
2023-03-26T09:42:05.920Z,25.99
2023-03-26T09:46:05.936Z,25.97
2023-03-26T09:50:06.057Z,25.99
2023-03-26T09:54:06.281Z,25.97
2023-03-26T09:58:06.504Z,25.97
2023-03-26T10:02:06.676Z,25.97
2023-03-26T10:06:06.883Z,25.98
2023-03-26T10:10:07.425Z,26.01
2023-03-26T10:14:07.111Z,25.99
2023-03-26T10:18:27.697Z,25.98
2023-03-26T10:22:08.447Z,25.99
2023-03-26T10:26:07.217Z,25.99
2023-03-26T10:30:07.357Z,25.99
2023-03-26T10:34:07.529Z,26.01
2023-03-26T10:38:07.803Z,25.97
2023-03-26T10:42:08.452Z,25.98
2023-03-26T10:46:08.454Z,25.97
2023-03-26T10:50:08.354Z,25.99
2023-03-26T10:54:08.938Z,25.98
2023-03-26T10:58:08.723Z,25.97
2023-03-26T11:02:08.845Z,25.97
2023-03-26T11:06:09.443Z,25.98
2023-03-26T11:10:09.160Z,25.98
2023-03-26T11:14:09.447Z,25.92
2023-03-26T11:18:09.494Z,25.95
2023-03-26T11:22:09.557Z,25.95
2023-03-26T11:26:09.944Z,25.98
2023-03-26T11:30:09.867Z,25.97
2023-03-26T11:34:10.466Z,25.97
2023-03-26T11:38:10.200Z,25.95
2023-03-26T11:42:10.490Z,25.95
2023-03-26T11:46:10.514Z,25.97
2023-03-26T11:50:10.963Z,25.98
2023-03-26T11:54:10.887Z,25.95
2023-03-26T11:58:11.478Z,25.97
2023-03-26T12:02:11.239Z,25.97
2023-03-26T12:06:11.307Z,25.97
2023-03-26T12:10:18.715Z,25.97
2023-03-26T12:14:12.424Z,25.97
2023-03-26T12:18:11.482Z,25.92
2023-03-26T12:22:11.385Z,25.97
2023-03-26T12:26:11.490Z,25.95
2023-03-26T12:30:12.047Z,25.94
2023-03-26T12:34:11.709Z,25.95
2023-03-26T12:38:11.976Z,25.95
2023-03-26T12:44:43.455Z,25.92
2023-03-26T12:47:55.027Z,25.95
2023-03-26T12:50:12.992Z,25.92
2023-03-26T12:54:11.850Z,25.94
2023-03-26T12:58:14.057Z,25.94
2023-03-26T13:02:19.585Z,25.92
2023-03-26T13:06:11.851Z,25.91
2023-03-26T13:10:12.005Z,25.92
2023-03-26T13:14:12.009Z,25.92
2023-03-26T13:18:12.002Z,25.92
2023-03-26T13:22:11.715Z,25.94
2023-03-26T13:26:11.661Z,25.91
2023-03-26T13:30:12.064Z,25.92
2023-03-26T13:34:12.120Z,25.92
2023-03-26T13:38:12.025Z,25.91
2023-03-26T13:42:12.049Z,25.95
2023-03-26T13:46:12.592Z,25.92
2023-03-26T13:50:12.228Z,25.91
2023-03-26T13:54:12.523Z,25.89
2023-03-26T13:58:12.510Z,25.94
2023-03-26T14:02:12.517Z,25.95
2023-03-26T14:06:12.647Z,25.95
2023-03-26T14:10:13.062Z,25.94
2023-03-26T14:14:13.014Z,25.94
2023-03-26T14:18:14.601Z,25.97
2023-03-26T14:22:13.202Z,25.94
2023-03-26T14:26:13.549Z,25.94
2023-03-26T14:30:13.509Z,25.97
2023-03-26T14:34:13.561Z,25.94
2023-03-26T14:38:13.640Z,25.94
2023-03-26T14:42:13.769Z,25.97
2023-03-26T14:46:14.058Z,25.95
2023-03-26T14:50:14.039Z,25.94
2023-03-26T14:54:14.134Z,25.94
2023-03-26T14:58:14.134Z,25.95
2023-03-26T15:02:14.242Z,25.95
2023-03-26T15:06:14.553Z,25.95
2023-03-26T15:10:14.538Z,25.97
2023-03-26T15:14:15.064Z,25.94
2023-03-26T15:18:14.707Z,25.94
2023-03-26T15:22:15.085Z,25.94
2023-03-26T15:26:14.987Z,25.92
2023-03-26T15:30:15.541Z,25.95
2023-03-26T15:34:16.082Z,25.95
2023-03-26T15:38:15.365Z,25.91
2023-03-26T15:42:15.571Z,25.94
2023-03-26T15:46:15.665Z,25.92
2023-03-26T15:50:16.126Z,25.95
2023-03-26T15:54:15.848Z,25.92
2023-03-26T15:58:16.087Z,25.94
2023-03-26T16:02:16.269Z,25.95
2023-03-26T16:06:16.338Z,25.95
2023-03-26T16:10:16.534Z,25.94
2023-03-26T16:14:16.625Z,25.95
2023-03-26T16:18:17.069Z,25.94
2023-03-26T16:22:17.076Z,25.97
2023-03-26T16:26:17.114Z,25.95
2023-03-26T16:30:20.215Z,25.95
2023-03-26T16:34:17.205Z,25.92
2023-03-26T16:38:17.554Z,25.94
2023-03-26T16:42:17.589Z,25.94
2023-03-26T16:46:17.114Z,25.94
2023-03-26T16:50:17.085Z,25.94
2023-03-26T16:54:17.111Z,25.94
2023-03-26T16:58:16.994Z,25.92
2023-03-26T17:02:16.947Z,25.94
2023-03-26T17:06:17.056Z,25.94
2023-03-26T17:10:16.879Z,25.92
2023-03-26T17:14:17.098Z,25.92
2023-03-26T17:18:17.173Z,25.91
2023-03-26T17:22:17.079Z,25.94
2023-03-26T17:26:17.100Z,25.94
2023-03-26T17:30:17.008Z,25.95
2023-03-26T17:34:17.090Z,25.95
2023-03-26T17:38:17.621Z,25.94
2023-03-26T17:42:17.590Z,25.94
2023-03-26T17:46:17.359Z,25.94
2023-03-26T17:50:17.587Z,25.95
2023-03-26T17:54:17.581Z,25.95
2023-03-26T17:58:18.109Z,25.91
2023-03-26T18:02:17.821Z,25.94
2023-03-26T18:06:17.899Z,25.94
2023-03-26T18:10:18.091Z,25.94
2023-03-26T18:14:18.163Z,25.94
2023-03-26T18:18:18.620Z,25.98
2023-03-26T18:22:18.493Z,25.94
2023-03-26T18:26:18.616Z,25.94
2023-03-26T18:30:18.716Z,25.95
2023-03-26T18:34:19.128Z,25.94
2023-03-26T18:38:19.115Z,25.97
2023-03-26T18:42:23.206Z,25.94
2023-03-26T18:46:20.112Z,25.97
2023-03-26T18:50:19.115Z,25.94
2023-03-26T18:54:18.813Z,25.94
2023-03-26T18:58:19.113Z,25.94
2023-03-26T19:02:18.762Z,25.92
2023-03-26T19:06:19.229Z,25.92
2023-03-26T19:10:18.612Z,25.94
2023-03-26T19:14:19.145Z,25.97
2023-03-26T19:18:19.183Z,25.92
2023-03-26T19:22:18.978Z,25.95
2023-03-26T19:26:19.133Z,25.94
2023-03-26T19:30:19.644Z,25.95
2023-03-26T19:34:19.646Z,25.95
2023-03-26T19:38:19.626Z,25.97
2023-03-26T19:42:19.757Z,25.94
2023-03-26T19:46:20.162Z,25.98
2023-03-26T19:50:20.120Z,25.95
2023-03-26T19:54:20.155Z,25.92
2023-03-26T19:58:20.300Z,25.97
2023-03-26T20:02:20.420Z,25.95
2023-03-26T20:06:22.198Z,25.95
2023-03-26T20:10:21.633Z,25.97
2023-03-26T20:14:20.636Z,25.97
2023-03-26T20:18:20.529Z,25.94
2023-03-26T20:22:20.661Z,25.94
2023-03-26T20:26:21.168Z,25.94
2023-03-26T20:30:36.860Z,25.95
2023-03-26T20:34:22.186Z,25.97
2023-03-26T20:38:26.556Z,25.94
2023-03-26T20:42:22.159Z,25.94
2023-03-26T20:46:21.180Z,25.95
2023-03-26T20:50:21.150Z,25.94
2023-03-26T20:54:20.942Z,25.92
2023-03-26T20:58:31.366Z,25.92
2023-03-26T21:02:22.107Z,25.94
2023-03-26T21:06:21.182Z,25.95
2023-03-26T21:10:21.163Z,25.94
2023-03-26T21:14:21.211Z,25.94
2023-03-26T21:18:21.672Z,25.94
2023-03-26T21:22:21.682Z,25.94
2023-03-26T21:26:22.189Z,25.92
2023-03-26T21:30:21.829Z,25.92
2023-03-26T21:34:21.997Z,25.95
2023-03-26T21:38:22.700Z,25.95
2023-03-26T21:42:22.693Z,25.94
2023-03-26T21:46:22.720Z,25.94
2023-03-26T21:50:22.665Z,25.97
2023-03-26T21:54:22.768Z,25.97
2023-03-26T21:58:23.197Z,25.94
2023-03-26T22:02:23.159Z,25.92
2023-03-26T22:06:23.673Z,25.95
2023-03-26T22:10:23.717Z,25.95
2023-03-26T22:14:23.533Z,25.92
2023-03-26T22:18:24.177Z,25.94
2023-03-26T22:22:24.196Z,25.95
2023-03-26T22:26:24.183Z,25.94
2023-03-26T22:30:24.182Z,25.94
2023-03-26T22:34:24.695Z,25.92
2023-03-26T22:38:24.434Z,25.94
2023-03-26T22:42:24.696Z,25.97
2023-03-26T22:46:25.267Z,25.94
2023-03-26T22:50:24.860Z,25.92
2023-03-26T22:54:25.036Z,25.94
2023-03-26T22:58:25.737Z,25.94
2023-03-26T23:02:25.415Z,25.98
2023-03-26T23:06:25.716Z,25.97
2023-03-26T23:10:25.682Z,25.94
2023-03-26T23:14:26.233Z,25.92
2023-03-26T23:18:25.982Z,25.94
2023-03-26T23:22:26.226Z,25.95
2023-03-26T23:26:26.192Z,25.94
2023-03-26T23:30:26.231Z,25.92
2023-03-26T23:34:26.374Z,25.92
2023-03-26T23:38:26.720Z,25.92
2023-03-26T23:42:28.303Z,25.94
2023-03-26T23:46:26.681Z,25.95
2023-03-26T23:50:26.620Z,25.92
2023-03-26T23:54:26.736Z,25.94
2023-03-26T23:58:26.512Z,25.92
